Time;durP1;ratioP1;P1;durP2;ratioP2;P2;SDS_P1;SDS_P2;PMS_P1;PMS_P2;Temp;Humidity;BMP_temperature;BMP_pressure;BME280_temperature;BME280_humidity;BME280_pressure;Samples;Min_cycle;Max_cycle;Signal;HPM_P1;HPM_P2
2022/02/14 00:01:28;;;;;;;6.83;2.40;;;;;;;;;;5037247;28;20080;-76
2022/02/14 00:03:53;;;;;;;6.43;2.83;;;;;;;;;;5033172;28;20050;-75
2022/02/14 00:06:18;;;;;;;7.17;3.00;;;;;;;;;;5041079;28;20166;-75
2022/02/14 00:08:45;;;;;;;9.13;3.40;;;;;;;;;;5043309;28;20029;-75
2022/02/14 00:11:10;;;;;;;7.20;2.80;;;;;;;;;;5037460;28;20031;-75
2022/02/14 00:13:35;;;;;;;9.97;2.93;;;;;;;;;;5042992;28;20112;-75
2022/02/14 00:16:01;;;;;;;6.50;2.70;;;;;;;;;;5041284;28;20037;-75
2022/02/14 00:18:26;;;;;;;8.00;3.23;;;;;;;;;;5032609;28;20028;-75
2022/02/14 00:20:51;;;;;;;5.97;2.80;;;;;;;;;;5038795;28;20112;-75
2022/02/14 00:23:16;;;;;;;8.73;2.53;;;;;;;;;;5039561;28;20687;-75
2022/02/14 00:25:42;;;;;;;7.67;2.80;;;;;;;;;;5043447;28;20053;-75
2022/02/14 00:28:08;;;;;;;11.07;2.60;;;;;;;;;;5043116;28;20033;-75
2022/02/14 00:30:33;;;;;;;9.17;2.70;;;;;;;;;;5043150;28;20029;-75
2022/02/14 00:32:58;;;;;;;5.50;2.60;;;;;;;;;;5042741;28;20044;-75
2022/02/14 00:35:23;;;;;;;6.77;2.73;;;;;;;;;;5042719;28;20035;-75
2022/02/14 00:37:49;;;;;;;8.13;2.80;;;;;;;;;;5033453;28;20695;-75
2022/02/14 00:40:15;;;;;;;7.60;2.70;;;;;;;;;;5042552;28;20089;-75
2022/02/14 00:42:40;;;;;;;6.37;2.80;;;;;;;;;;5031808;28;20026;-75
2022/02/14 00:45:06;;;;;;;6.23;2.30;;;;;;;;;;5038234;28;20025;-75
2022/02/14 00:47:31;;;;;;;8.77;2.50;;;;;;;;;;5035022;28;20040;-74
2022/02/14 00:49:57;;;;;;;8.97;2.40;;;;;;;;;;5042260;28;20112;-75
2022/02/14 00:52:22;;;;;;;7.60;2.20;;;;;;;;;;5045024;28;20063;-74
2022/02/14 00:54:47;;;;;;;7.33;2.77;;;;;;;;;;5039632;28;20106;-74
2022/02/14 00:57:13;;;;;;;13.47;3.00;;;;;;;;;;5042345;28;20515;-74
2022/02/14 00:59:38;;;;;;;6.27;2.50;;;;;;;;;;5041888;28;20036;-74
2022/02/14 01:02:03;;;;;;;5.43;2.63;;;;;;;;;;5032678;28;20033;-74
2022/02/14 01:04:29;;;;;;;4.57;2.30;;;;;;;;;;5038059;28;20091;-74
2022/02/14 01:06:54;;;;;;;4.87;2.03;;;;;;;;;;5038392;28;20028;-74
2022/02/14 01:09:19;;;;;;;7.67;2.73;;;;;;;;;;5037528;28;20025;-74
2022/02/14 01:11:45;;;;;;;8.73;2.30;;;;;;;;;;5037121;28;20025;-74
2022/02/14 01:14:11;;;;;;;8.23;2.60;;;;;;;;;;5036964;28;20034;-74
2022/02/14 01:16:36;;;;;;;4.83;2.30;;;;;;;;;;5038596;28;20033;-74
2022/02/14 01:19:01;;;;;;;6.37;2.90;;;;;;;;;;5037805;28;20046;-74
2022/02/14 01:21:27;;;;;;;7.33;2.40;;;;;;;;;;5036784;28;20024;-74
2022/02/14 01:23:52;;;;;;;6.13;2.40;;;;;;;;;;5037027;28;20024;-74
2022/02/14 01:26:17;;;;;;;8.03;2.50;;;;;;;;;;5036653;28;20021;-74
2022/02/14 01:28:43;;;;;;;7.10;2.73;;;;;;;;;;5025603;28;20033;-74
2022/02/14 01:31:08;;;;;;;5.33;2.10;;;;;;;;;;5038031;28;20027;-74
2022/02/14 01:33:33;;;;;;;5.47;2.57;;;;;;;;;;5038966;28;20025;-74
2022/02/14 01:35:59;;;;;;;6.43;1.90;;;;;;;;;;5035933;28;20037;-73
2022/02/14 01:38:24;;;;;;;5.63;2.13;;;;;;;;;;5036061;28;20122;-73
2022/02/14 01:40:50;;;;;;;7.53;2.87;;;;;;;;;;5040853;28;20513;-73
2022/02/14 01:43:16;;;;;;;8.93;2.40;;;;;;;;;;5039141;28;20068;-73
2022/02/14 01:45:42;;;;;;;6.23;2.27;;;;;;;;;;5033061;28;20684;-73
2022/02/14 01:48:07;;;;;;;10.33;2.27;;;;;;;;;;5037430;28;20052;-73
2022/02/14 01:50:33;;;;;;;6.47;2.47;;;;;;;;;;5034183;28;20548;-73
2022/02/14 01:52:58;;;;;;;7.13;2.27;;;;;;;;;;5041294;28;20045;-73
2022/02/14 01:55:23;;;;;;;7.37;2.30;;;;;;;;;;5041768;28;20041;-73
2022/02/14 01:57:49;;;;;;;6.07;2.23;;;;;;;;;;5040877;28;20024;-73
2022/02/14 02:00:16;;;;;;;7.90;2.13;;;;;;;;;;5040683;28;20056;-73
2022/02/14 02:02:41;;;;;;;8.57;2.77;;;;;;;;;;5038061;28;20040;-73
2022/02/14 02:05:07;;;;;;;6.13;2.30;;;;;;;;;;5041075;28;20051;-73
2022/02/14 02:07:33;;;;;;;6.90;2.73;;;;;;;;;;5041072;28;20350;-73
2022/02/14 02:09:58;;;;;;;6.73;2.17;;;;;;;;;;5029821;28;20459;-73
2022/02/14 02:12:23;;;;;;;5.90;2.50;;;;;;;;;;5029945;28;20036;-73
2022/02/14 02:14:50;;;;;;;6.17;2.20;;;;;;;;;;5034213;28;20017;-73
2022/02/14 02:17:15;;;;;;;6.33;2.43;;;;;;;;;;5041604;28;20741;-73
2022/02/14 02:19:40;;;;;;;9.17;2.53;;;;;;;;;;5035959;28;20025;-73
2022/02/14 02:22:06;;;;;;;5.63;2.57;;;;;;;;;;5041060;28;20031;-73
2022/02/14 02:24:33;;;;;;;8.37;2.30;;;;;;;;;;5037469;28;20017;-73
2022/02/14 02:27:00;;;;;;;5.03;2.10;;;;;;;;;;5039042;28;20082;-73
2022/02/14 02:29:26;;;;;;;7.00;2.20;;;;;;;;;;5040870;28;20108;-73
2022/02/14 02:31:51;;;;;;;7.83;2.43;;;;;;;;;;5040609;28;20061;-73
2022/02/14 02:34:17;;;;;;;6.30;2.13;;;;;;;;;;5041102;28;20082;-73
2022/02/14 02:36:52;;;;;;;6.23;2.40;;;;;;;;;;5039950;28;20112;-74
2022/02/14 02:39:18;;;;;;;5.83;2.30;;;;;;;;;;5037648;28;20026;-73
2022/02/14 02:41:43;;;;;;;5.07;2.13;;;;;;;;;;5040823;28;20029;-73
2022/02/14 02:44:09;;;;;;;6.97;2.77;;;;;;;;;;5041109;28;20467;-74
2022/02/14 02:46:35;;;;;;;4.63;2.17;;;;;;;;;;5039987;28;20048;-73
2022/02/14 02:49:10;;;;;;;4.63;1.97;;;;;;;;;;5033798;28;20037;-76
2022/02/14 02:51:39;;;;;;;13.10;2.60;;;;;;;;;;5038908;28;20033;-74
2022/02/14 02:54:04;;;;;;;7.43;2.50;;;;;;;;;;5039987;28;20025;-74
2022/02/14 02:56:30;;;;;;;6.60;1.93;;;;;;;;;;5033469;28;20552;-74
2022/02/14 02:58:55;;;;;;;4.53;2.03;;;;;;;;;;5036078;28;20044;-74
2022/02/14 03:01:20;;;;;;;12.47;3.40;;;;;;;;;;5038724;28;20017;-74
2022/02/14 03:03:46;;;;;;;6.73;2.40;;;;;;;;;;5033824;28;20049;-74
2022/02/14 03:06:11;;;;;;;9.07;2.60;;;;;;;;;;5041294;28;20039;-74
2022/02/14 03:08:36;;;;;;;5.73;2.03;;;;;;;;;;5044500;28;20067;-74
2022/02/14 03:11:01;;;;;;;5.07;2.30;;;;;;;;;;5044390;28;20033;-74
2022/02/14 03:13:27;;;;;;;5.83;2.77;;;;;;;;;;5032866;28;20128;-74
2022/02/14 03:15:52;;;;;;;7.33;2.00;;;;;;;;;;5042432;28;20033;-74
2022/02/14 03:18:17;;;;;;;7.53;2.00;;;;;;;;;;5044674;28;20025;-74
2022/02/14 03:20:43;;;;;;;8.73;2.20;;;;;;;;;;5044179;28;20056;-73
2022/02/14 03:23:08;;;;;;;5.63;2.23;;;;;;;;;;5041799;28;20039;-74
2022/02/14 03:25:33;;;;;;;8.37;2.50;;;;;;;;;;5044554;28;20056;-74
2022/02/14 03:27:59;;;;;;;6.10;2.20;;;;;;;;;;5044099;28;20033;-74
2022/02/14 03:30:24;;;;;;;6.30;2.10;;;;;;;;;;5044256;28;20501;-74
2022/02/14 03:32:49;;;;;;;5.37;2.17;;;;;;;;;;5044073;28;20479;-74
2022/02/14 03:35:14;;;;;;;7.80;2.33;;;;;;;;;;5043960;28;20040;-74
2022/02/14 03:37:40;;;;;;;7.57;2.57;;;;;;;;;;5042979;28;20654;-74
2022/02/14 03:40:05;;;;;;;9.40;2.40;;;;;;;;;;5043081;28;20033;-74
2022/02/14 03:42:31;;;;;;;13.13;2.40;;;;;;;;;;5042008;28;20028;-74
2022/02/14 03:44:56;;;;;;;7.10;2.00;;;;;;;;;;5030971;28;20079;-74
2022/02/14 03:47:21;;;;;;;4.20;2.00;;;;;;;;;;5043896;28;20120;-74
2022/02/14 03:49:46;;;;;;;4.40;2.13;;;;;;;;;;5029384;28;20036;-74
2022/02/14 03:52:12;;;;;;;5.67;2.17;;;;;;;;;;5043634;28;20032;-74
2022/02/14 03:54:37;;;;;;;6.17;2.13;;;;;;;;;;5040804;28;20037;-74
2022/02/14 03:57:02;;;;;;;5.90;2.00;;;;;;;;;;5041401;28;20104;-74
2022/02/14 03:59:28;;;;;;;8.03;2.27;;;;;;;;;;5044011;28;20048;-74
2022/02/14 04:01:53;;;;;;;4.60;2.07;;;;;;;;;;5041485;28;20025;-75
2022/02/14 04:04:19;;;;;;;7.83;2.80;;;;;;;;;;5042343;28;20393;-74
2022/02/14 04:06:44;;;;;;;8.10;2.30;;;;;;;;;;5043526;28;20025;-73
2022/02/14 04:09:09;;;;;;;4.67;2.23;;;;;;;;;;5037579;28;20037;-73
2022/02/14 04:11:35;;;;;;;7.67;2.30;;;;;;;;;;5040310;28;20059;-73
2022/02/14 04:14:00;;;;;;;4.77;2.00;;;;;;;;;;5040087;28;20033;-73
2022/02/14 04:16:25;;;;;;;11.27;2.50;;;;;;;;;;5043057;28;20037;-74
2022/02/14 04:18:50;;;;;;;7.90;2.13;;;;;;;;;;5027290;28;20113;-74
2022/02/14 04:21:16;;;;;;;5.37;2.17;;;;;;;;;;5038818;28;20025;-73
2022/02/14 04:23:41;;;;;;;7.83;2.20;;;;;;;;;;5042721;28;20036;-73
2022/02/14 04:26:06;;;;;;;7.90;2.33;;;;;;;;;;5042746;28;20033;-74
2022/02/14 04:28:31;;;;;;;5.73;2.00;;;;;;;;;;5028697;28;20366;-73
2022/02/14 04:30:57;;;;;;;5.57;2.53;;;;;;;;;;5042901;28;20052;-72
2022/02/14 04:33:22;;;;;;;6.10;2.30;;;;;;;;;;5041545;28;20029;-73
2022/02/14 04:35:47;;;;;;;4.97;2.13;;;;;;;;;;5032211;28;20036;-73
2022/02/14 04:38:13;;;;;;;5.50;2.67;;;;;;;;;;5040289;28;20104;-73
2022/02/14 04:40:39;;;;;;;6.70;2.33;;;;;;;;;;5041180;28;20276;-73
2022/02/14 04:43:04;;;;;;;6.23;2.53;;;;;;;;;;5037882;28;20013;-73
2022/02/14 04:45:30;;;;;;;6.73;2.33;;;;;;;;;;5042179;28;20028;-74
2022/02/14 04:47:55;;;;;;;10.33;2.73;;;;;;;;;;5042333;28;20035;-73
2022/02/14 04:50:21;;;;;;;6.00;2.40;;;;;;;;;;5030787;28;20627;-73
2022/02/14 04:52:46;;;;;;;8.13;2.43;;;;;;;;;;5042546;28;20025;-73
2022/02/14 04:55:12;;;;;;;7.73;2.10;;;;;;;;;;5039705;28;20090;-73
2022/02/14 04:57:37;;;;;;;6.93;2.10;;;;;;;;;;5041645;28;20079;-73
2022/02/14 05:00:04;;;;;;;4.97;2.10;;;;;;;;;;5041504;28;20399;-73
2022/02/14 05:02:29;;;;;;;8.27;2.77;;;;;;;;;;5041906;28;20037;-73
2022/02/14 05:04:54;;;;;;;5.60;2.10;;;;;;;;;;5042049;28;20086;-73
2022/02/14 05:07:19;;;;;;;6.23;2.30;;;;;;;;;;5041620;28;20074;-73
2022/02/14 05:09:45;;;;;;;6.67;2.50;;;;;;;;;;5028272;28;20034;-73
2022/02/14 05:12:10;;;;;;;4.73;2.20;;;;;;;;;;5042320;28;20028;-73
2022/02/14 05:14:35;;;;;;;6.20;2.30;;;;;;;;;;5033474;28;20029;-73
2022/02/14 05:17:00;;;;;;;6.90;2.17;;;;;;;;;;5038559;28;20053;-73
2022/02/14 05:19:26;;;;;;;8.57;2.60;;;;;;;;;;5027787;28;20029;-73
2022/02/14 05:21:51;;;;;;;10.50;2.90;;;;;;;;;;5038063;28;20122;-74
2022/02/14 05:24:16;;;;;;;8.93;1.97;;;;;;;;;;5032771;28;20108;-73
2022/02/14 05:26:42;;;;;;;5.00;2.00;;;;;;;;;;5038899;28;20024;-72
2022/02/14 05:29:07;;;;;;;6.83;2.57;;;;;;;;;;5041923;28;20032;-74
2022/02/14 05:31:32;;;;;;;7.53;2.70;;;;;;;;;;5038234;28;20094;-73
2022/02/14 05:33:58;;;;;;;5.83;2.50;;;;;;;;;;5039789;28;20029;-73
2022/02/14 05:36:23;;;;;;;6.70;2.30;;;;;;;;;;5039315;28;20624;-73
2022/02/14 05:38:48;;;;;;;8.07;2.40;;;;;;;;;;5037028;28;20036;-73
2022/02/14 05:41:14;;;;;;;8.17;2.23;;;;;;;;;;5038812;28;20033;-73
2022/02/14 05:43:40;;;;;;;5.63;2.03;;;;;;;;;;5041733;28;20420;-73
2022/02/14 05:46:13;;;;;;;6.13;2.20;;;;;;;;;;5041346;28;20044;-73
2022/02/14 05:48:38;;;;;;;7.23;1.90;;;;;;;;;;5041656;28;20075;-73
2022/02/14 05:51:04;;;;;;;8.17;2.47;;;;;;;;;;5041113;28;20040;-73
2022/02/14 05:53:29;;;;;;;7.53;2.40;;;;;;;;;;5039882;28;20651;-73
2022/02/14 05:55:55;;;;;;;6.73;2.77;;;;;;;;;;5041267;28;20122;-73
2022/02/14 05:58:20;;;;;;;6.30;2.50;;;;;;;;;;5041216;28;20021;-73
2022/02/14 06:00:45;;;;;;;6.50;2.67;;;;;;;;;;5040263;28;20040;-73
2022/02/14 06:03:10;;;;;;;8.87;2.93;;;;;;;;;;5040714;28;20716;-73
2022/02/14 06:05:36;;;;;;;6.67;2.40;;;;;;;;;;5041393;28;20037;-75
2022/02/14 06:08:01;;;;;;;7.00;2.93;;;;;;;;;;5034462;28;20033;-75
2022/02/14 06:10:26;;;;;;;5.90;2.20;;;;;;;;;;5040783;28;20032;-75
2022/02/14 06:12:52;;;;;;;5.90;2.37;;;;;;;;;;5040758;28;20481;-75
2022/02/14 06:15:18;;;;;;;8.37;2.40;;;;;;;;;;5029633;28;20021;-75
2022/02/14 06:17:43;;;;;;;8.00;2.40;;;;;;;;;;5031187;28;20052;-75
2022/02/14 06:20:08;;;;;;;21.33;2.60;;;;;;;;;;5029363;28;20025;-75
2022/02/14 06:22:34;;;;;;;8.13;2.67;;;;;;;;;;5040909;28;20763;-74
2022/02/14 06:24:59;;;;;;;13.40;2.53;;;;;;;;;;5040965;28;20090;-74
2022/02/14 06:27:24;;;;;;;9.43;2.50;;;;;;;;;;5041006;28;20112;-74
2022/02/14 06:29:50;;;;;;;5.13;2.23;;;;;;;;;;5035721;28;20033;-75
2022/02/14 06:32:16;;;;;;;9.13;2.33;;;;;;;;;;5041086;28;20651;-77
2022/02/14 06:34:42;;;;;;;9.47;2.53;;;;;;;;;;5027595;28;20029;-74
2022/02/14 06:37:07;;;;;;;7.93;2.10;;;;;;;;;;5041033;28;20029;-74
2022/02/14 06:39:32;;;;;;;5.13;2.20;;;;;;;;;;5040236;28;20020;-74
2022/02/14 06:41:58;;;;;;;8.67;2.87;;;;;;;;;;5039860;28;20025;-74
2022/02/14 06:44:24;;;;;;;6.07;2.37;;;;;;;;;;5036979;28;20016;-74
2022/02/14 06:46:49;;;;;;;5.00;1.70;;;;;;;;;;5032274;28;20029;-74
2022/02/14 06:49:14;;;;;;;4.70;1.80;;;;;;;;;;5021968;28;20521;-73
2022/02/14 06:51:40;;;;;;;8.67;1.80;;;;;;;;;;5038944;28;20063;-74
2022/02/14 06:54:05;;;;;;;4.43;1.90;;;;;;;;;;5037640;28;20044;-74
2022/02/14 06:56:31;;;;;;;7.50;1.87;;;;;;;;;;5040175;28;20506;-74
2022/02/14 06:58:56;;;;;;;8.77;1.73;;;;;;;;;;5037402;28;20021;-74
2022/02/14 07:01:22;;;;;;;5.70;1.80;;;;;;;;;;5040443;28;20028;-74
2022/02/14 07:03:47;;;;;;;6.23;2.10;;;;;;;;;;5033749;28;20037;-74
2022/02/14 07:06:15;;;;;;;5.17;1.70;;;;;;;;;;5035209;28;20040;-74
2022/02/14 07:08:40;;;;;;;4.33;1.93;;;;;;;;;;5039013;28;20028;-74
2022/02/14 07:11:05;;;;;;;6.43;2.13;;;;;;;;;;5040971;28;20083;-74
2022/02/14 07:13:31;;;;;;;4.60;1.87;;;;;;;;;;5039311;28;20594;-74
2022/02/14 07:15:56;;;;;;;6.20;2.07;;;;;;;;;;5036644;28;20036;-74
2022/02/14 07:18:21;;;;;;;5.90;1.83;;;;;;;;;;5032617;28;20028;-74
2022/02/14 07:20:47;;;;;;;6.60;2.33;;;;;;;;;;5034961;28;20025;-73
2022/02/14 07:23:13;;;;;;;5.73;1.93;;;;;;;;;;5040746;28;20040;-74
2022/02/14 07:25:38;;;;;;;5.43;2.03;;;;;;;;;;5040863;28;20691;-74
2022/02/14 07:28:04;;;;;;;7.70;2.30;;;;;;;;;;5039991;28;20029;-74
2022/02/14 07:30:29;;;;;;;5.70;1.80;;;;;;;;;;5040455;28;20723;-74
2022/02/14 07:32:55;;;;;;;3.83;1.80;;;;;;;;;;5040895;28;20037;-74
2022/02/14 07:35:20;;;;;;;5.23;1.70;;;;;;;;;;5026547;28;20079;-75
2022/02/14 07:37:45;;;;;;;9.90;1.77;;;;;;;;;;5057004;22;20445;-70
2022/02/14 07:40:12;;;;;;;9.27;1.90;;;;;;;;;;5040616;28;20593;-71
2022/02/14 07:42:37;;;;;;;6.57;2.07;;;;;;;;;;5040147;28;20469;-69
2022/02/14 07:45:03;;;;;;;8.53;2.30;;;;;;;;;;5041472;28;20112;-69
2022/02/14 07:47:28;;;;;;;5.03;1.77;;;;;;;;;;5041219;28;20553;-69
2022/02/14 07:49:54;;;;;;;5.43;1.63;;;;;;;;;;5038354;28;20047;-70
2022/02/14 07:52:19;;;;;;;5.23;1.93;;;;;;;;;;5041308;28;20098;-69
2022/02/14 07:54:44;;;;;;;6.30;1.80;;;;;;;;;;5045921;28;20035;-69
2022/02/14 07:57:10;;;;;;;6.37;2.00;;;;;;;;;;5042485;28;20104;-69
2022/02/14 07:59:35;;;;;;;5.03;1.60;;;;;;;;;;5042885;28;20082;-69
2022/02/14 08:02:00;;;;;;;7.00;1.50;;;;;;;;;;5042800;28;20040;-69
2022/02/14 08:04:26;;;;;;;3.73;1.40;;;;;;;;;;5040315;28;20120;-69
2022/02/14 08:06:51;;;;;;;3.47;1.50;;;;;;;;;;5043423;28;20097;-69
2022/02/14 08:09:17;;;;;;;4.30;1.70;;;;;;;;;;5043338;28;20033;-69
2022/02/14 08:11:42;;;;;;;7.17;1.60;;;;;;;;;;5040659;28;20108;-70
2022/02/14 08:14:08;;;;;;;6.87;2.17;;;;;;;;;;5039763;28;20108;-69
2022/02/14 08:16:34;;;;;;;4.13;1.63;;;;;;;;;;5042608;28;20029;-69
2022/02/14 08:18:59;;;;;;;4.23;1.63;;;;;;;;;;5039892;28;20036;-69
2022/02/14 08:21:25;;;;;;;4.93;1.70;;;;;;;;;;5043255;28;20029;-69
2022/02/14 08:23:50;;;;;;;4.67;1.70;;;;;;;;;;5042508;28;20111;-69
2022/02/14 08:26:16;;;;;;;3.47;1.30;;;;;;;;;;5041143;28;20588;-69
2022/02/14 08:28:41;;;;;;;7.37;1.83;;;;;;;;;;5043223;28;20104;-70
2022/02/14 08:31:06;;;;;;;6.40;1.57;;;;;;;;;;5043004;28;20052;-70
2022/02/14 08:33:32;;;;;;;6.67;1.70;;;;;;;;;;5041781;28;20035;-70
2022/02/14 08:35:57;;;;;;;5.27;1.63;;;;;;;;;;5041264;28;20029;-69
2022/02/14 08:38:22;;;;;;;5.23;1.97;;;;;;;;;;5031605;28;20045;-69
2022/02/14 08:40:47;;;;;;;6.70;1.90;;;;;;;;;;5031913;28;20497;-69
2022/02/14 08:43:13;;;;;;;8.60;1.53;;;;;;;;;;5042884;28;20049;-68
2022/02/14 08:45:38;;;;;;;3.50;1.60;;;;;;;;;;5042046;28;20025;-68
2022/02/14 08:48:03;;;;;;;5.25;1.60;;;;;;;;;;5039586;28;20053;-68
2022/02/14 08:50:29;;;;;;;4.15;1.60;;;;;;;;;;5037422;28;20676;-68
2022/02/14 08:52:55;;;;;;;3.90;1.38;;;;;;;;;;5023747;28;20114;-68
2022/02/14 08:55:21;;;;;;;4.78;1.40;;;;;;;;;;5034845;28;20021;-69
2022/02/14 08:57:46;;;;;;;5.03;1.50;;;;;;;;;;5042741;28;20029;-70
2022/02/14 09:00:12;;;;;;;4.00;1.73;;;;;;;;;;5040882;28;20031;-70
2022/02/14 09:02:37;;;;;;;4.67;1.40;;;;;;;;;;5039430;28;20059;-70
2022/02/14 09:05:02;;;;;;;4.87;1.60;;;;;;;;;;5039136;28;20044;-70
2022/02/14 09:07:28;;;;;;;5.33;1.70;;;;;;;;;;5042247;28;20057;-69
2022/02/14 09:09:53;;;;;;;3.50;1.40;;;;;;;;;;5041276;28;20458;-70
2022/02/14 09:12:19;;;;;;;9.57;1.50;;;;;;;;;;5042446;28;20031;-70
2022/02/14 09:14:44;;;;;;;3.77;1.77;;;;;;;;;;5041568;28;20462;-70
2022/02/14 09:17:14;;;;;;;3.77;1.40;;;;;;;;;;5041756;28;20041;-69
2022/02/14 09:19:41;;;;;;;4.60;1.83;;;;;;;;;;5028861;28;20039;-69
2022/02/14 09:22:06;;;;;;;4.90;1.67;;;;;;;;;;5046698;28;20478;-70
2022/02/14 09:24:32;;;;;;;6.27;1.73;;;;;;;;;;5040171;28;20037;-69
2022/02/14 09:26:57;;;;;;;7.80;1.60;;;;;;;;;;5030644;28;20432;-70
2022/02/14 09:29:23;;;;;;;3.03;1.10;;;;;;;;;;5036077;28;20075;-70
2022/02/14 09:31:48;;;;;;;5.53;1.60;;;;;;;;;;5042420;28;20032;-70
2022/02/14 09:34:13;;;;;;;4.70;1.77;;;;;;;;;;5041951;28;20027;-70
2022/02/14 09:36:39;;;;;;;4.00;1.63;;;;;;;;;;5041524;28;20099;-70
2022/02/14 09:39:05;;;;;;;3.23;1.50;;;;;;;;;;5038158;28;20041;-70
2022/02/14 09:41:30;;;;;;;4.20;1.20;;;;;;;;;;5036567;28;20051;-70
2022/02/14 09:43:56;;;;;;;4.73;1.43;;;;;;;;;;5041282;28;20535;-70
2022/02/14 09:46:21;;;;;;;4.50;1.50;;;;;;;;;;5041301;28;20029;-70
2022/02/14 09:48:47;;;;;;;5.30;1.50;;;;;;;;;;5041977;28;20021;-70
2022/02/14 09:51:14;;;;;;;7.93;1.53;;;;;;;;;;5041053;28;20038;-70
2022/02/14 09:53:39;;;;;;;2.70;1.20;;;;;;;;;;5038081;28;20623;-70
2022/02/14 09:56:04;;;;;;;4.50;1.70;;;;;;;;;;5047611;28;20047;-70
2022/02/14 09:58:30;;;;;;;6.87;1.60;;;;;;;;;;5042943;28;20025;-70
2022/02/14 10:00:55;;;;;;;6.13;1.47;;;;;;;;;;5041549;28;20106;-70
2022/02/14 10:03:23;;;;;;;5.03;1.73;;;;;;;;;;5041160;28;20713;-70
2022/02/14 10:05:52;;;;;;;3.57;1.83;;;;;;;;;;5041202;28;20035;-70
2022/02/14 10:08:27;;;;;;;6.13;1.10;;;;;;;;;;5043613;28;20025;-70
2022/02/14 10:10:53;;;;;;;4.23;1.57;;;;;;;;;;5031208;28;20064;-70
2022/02/14 10:13:30;;;;;;;6.97;1.93;;;;;;;;;;5041040;28;20021;-70
2022/02/14 10:15:55;;;;;;;4.10;1.23;;;;;;;;;;5039790;28;20025;-70
2022/02/14 10:18:34;;;;;;;2.20;1.10;;;;;;;;;;5039124;28;20509;-70
2022/02/14 10:21:18;;;;;;;3.77;1.23;;;;;;;;;;5039410;28;20090;-70
2022/02/14 10:24:16;;;;;;;2.87;1.10;;;;;;;;;;5021019;28;20025;-70
2022/02/14 10:26:47;;;;;;;2.57;1.30;;;;;;;;;;4971688;28;20034;-70
2022/02/14 10:29:13;;;;;;;3.58;1.20;;;;;;;;;;4974564;28;20038;-70
2022/02/14 10:31:48;;;;;;;2.87;1.20;;;;;;;;;;4977714;28;20541;-70
2022/02/14 10:34:14;;;;;;;8.33;1.40;;;;;;;;;;4978407;28;20072;-70
2022/02/14 10:36:40;;;;;;;3.03;1.20;;;;;;;;;;4978023;28;20030;-70
2022/02/14 10:39:07;;;;;;;5.27;1.40;;;;;;;;;;4978612;28;20181;-70
2022/02/14 10:41:33;;;;;;;3.50;1.33;;;;;;;;;;4973157;28;20055;-70
2022/02/14 10:44:05;;;;;;;2.60;1.20;;;;;;;;;;4971677;28;20062;-70
2022/02/14 10:46:31;;;;;;;2.73;1.10;;;;;;;;;;4958844;28;20060;-70
2022/02/14 10:48:58;;;;;;;5.13;1.43;;;;;;;;;;4975413;28;20240;-70
2022/02/14 10:51:23;;;;;;;2.90;1.37;;;;;;;;;;4973123;28;20034;-70
2022/02/14 10:53:49;;;;;;;3.17;1.23;;;;;;;;;;4970294;28;20042;-70
2022/02/14 10:56:15;;;;;;;4.23;1.20;;;;;;;;;;4976796;28;20046;-70
2022/02/14 10:58:41;;;;;;;2.97;1.33;;;;;;;;;;4972422;28;20031;-70
2022/02/14 11:01:13;;;;;;;5.70;1.50;;;;;;;;;;4976584;28;20030;-70
2022/02/14 11:03:39;;;;;;;3.07;1.37;;;;;;;;;;5033290;28;20464;-70
2022/02/14 11:06:05;;;;;;;2.60;1.30;;;;;;;;;;5032985;28;20025;-70
2022/02/14 11:08:32;;;;;;;4.90;1.57;;;;;;;;;;5038677;28;20035;-70
2022/02/14 11:10:57;;;;;;;3.10;1.60;;;;;;;;;;5040165;28;20114;-70
2022/02/14 11:13:26;;;;;;;3.47;1.33;;;;;;;;;;5038513;28;20126;-70
2022/02/14 11:15:53;;;;;;;9.37;1.70;;;;;;;;;;5029994;28;20072;-70
2022/02/14 11:18:20;;;;;;;3.00;1.40;;;;;;;;;;5041299;28;20072;-70
2022/02/14 11:20:48;;;;;;;2.40;1.37;;;;;;;;;;5039683;28;20116;-70
2022/02/14 11:23:15;;;;;;;4.80;1.60;;;;;;;;;;5039917;28;20040;-70
2022/02/14 11:25:40;;;;;;;2.60;1.23;;;;;;;;;;5039480;28;20079;-70
2022/02/14 11:28:10;;;;;;;4.23;1.97;;;;;;;;;;5041995;28;20028;-70
2022/02/14 11:30:36;;;;;;;5.17;1.63;;;;;;;;;;5038086;28;20108;-70
2022/02/14 11:33:22;;;;;;;4.43;1.60;;;;;;;;;;5029914;28;20104;-70
2022/02/14 11:36:05;;;;;;;3.10;1.60;;;;;;;;;;5041340;28;20048;-70
2022/02/14 11:38:42;;;;;;;3.77;1.77;;;;;;;;;;5041947;28;20063;-70
2022/02/14 11:41:26;;;;;;;4.00;1.97;;;;;;;;;;5040396;28;20389;-70
2022/02/14 11:43:51;;;;;;;3.87;2.00;;;;;;;;;;5043685;28;20414;-70
2022/02/14 11:46:18;;;;;;;3.10;1.63;;;;;;;;;;5044034;28;20030;-70
2022/02/14 11:48:44;;;;;;;3.90;1.60;;;;;;;;;;5037524;28;20028;-70
2022/02/14 11:51:11;;;;;;;3.67;2.00;;;;;;;;;;5041738;28;20090;-70
2022/02/14 11:53:36;;;;;;;4.47;2.10;;;;;;;;;;5043108;28;20070;-70
2022/02/14 11:56:19;;;;;;;5.63;2.23;;;;;;;;;;5042996;28;20064;-70
2022/02/14 11:59:03;;;;;;;2.33;1.37;;;;;;;;;;5043741;28;20064;-70
2022/02/14 12:01:29;;;;;;;3.80;1.90;;;;;;;;;;5043264;28;20085;-70
2022/02/14 12:04:13;;;;;;;6.03;1.80;;;;;;;;;;5043823;28;20104;-70
2022/02/14 12:06:58;;;;;;;4.00;1.93;;;;;;;;;;5039204;28;20033;-70
2022/02/14 12:09:24;;;;;;;5.43;2.50;;;;;;;;;;5043610;28;20112;-70
2022/02/14 12:11:49;;;;;;;3.87;2.17;;;;;;;;;;5042324;28;20779;-70
2022/02/14 12:14:18;;;;;;;3.47;1.73;;;;;;;;;;5037697;28;20112;-70
2022/02/14 12:22:30;;;;;;;3.90;1.80;;;;;;;;;;5041384;28;20028;-70
2022/02/14 12:25:02;;;;;;;2.83;1.50;;;;;;;;;;5026743;28;20025;-70
2022/02/14 12:27:27;;;;;;;;;;;;;;;;;;5035697;28;20530;-70
2022/02/14 12:29:52;;;;;;;3.25;1.40;;;;;;;;;;5042399;28;19920;-70
2022/02/14 12:32:18;;;;;;;2.50;1.10;;;;;;;;;;5042648;28;20025;-70
2022/02/14 12:34:44;;;;;;;2.70;1.30;;;;;;;;;;5029435;28;20028;-70
2022/02/14 12:37:11;;;;;;;2.93;1.20;;;;;;;;;;5029765;28;20041;-70
2022/02/14 12:39:37;;;;;;;2.17;0.90;;;;;;;;;;5025443;28;20024;-70
2022/02/14 12:42:09;;;;;;;2.93;1.07;;;;;;;;;;5042918;28;20027;-70
2022/02/14 12:44:34;;;;;;;1.90;1.05;;;;;;;;;;5034667;28;20025;-70
2022/02/14 12:47:00;;;;;;;0.77;0.53;;;;;;;;;;5042184;28;20636;-70
2022/02/14 12:49:25;;;;;;;2.03;0.80;;;;;;;;;;5042560;28;20104;-70
2022/02/14 12:51:50;;;;;;;4.60;0.83;;;;;;;;;;5042538;28;20033;-70
2022/02/14 12:54:15;;;;;;;2.27;1.10;;;;;;;;;;5042706;28;20033;-70
2022/02/14 12:56:43;;;;;;;2.13;0.80;;;;;;;;;;5042102;28;20037;-70
2022/02/14 12:59:09;;;;;;;1.53;0.70;;;;;;;;;;5042394;28;20108;-70
2022/02/14 13:01:41;;;;;;;1.30;0.70;;;;;;;;;;5042038;28;20025;-70
2022/02/14 13:04:08;;;;;;;2.15;0.93;;;;;;;;;;5041285;28;20052;-70
2022/02/14 13:06:49;;;;;;;4.33;1.30;;;;;;;;;;5041292;28;20031;-70
2022/02/14 13:09:31;;;;;;;1.30;0.70;;;;;;;;;;5041975;28;20075;-70
2022/02/14 13:12:01;;;;;;;3.10;0.80;;;;;;;;;;5041413;28;20158;-70
2022/02/14 13:14:34;;;;;;;1.77;0.53;;;;;;;;;;5034123;28;20039;-70
2022/02/14 13:17:03;;;;;;;1.00;0.57;;;;;;;;;;5041000;28;20104;-70
2022/02/14 13:19:29;;;;;;;1.70;0.77;;;;;;;;;;5028675;28;20052;-70
2022/02/14 13:21:54;;;;;;;1.90;0.80;;;;;;;;;;5041954;28;20110;-70
2022/02/14 13:24:27;;;;;;;1.83;0.80;;;;;;;;;;5042155;28;20103;-70
2022/02/14 13:27:00;;;;;;;2.63;0.93;;;;;;;;;;5041850;28;20036;-70
2022/02/14 13:29:35;;;;;;;2.93;1.10;;;;;;;;;;5038143;28;20733;-70
2022/02/14 13:32:00;;;;;;;1.77;0.87;;;;;;;;;;5041044;28;20026;-70
2022/02/14 13:34:25;;;;;;;2.60;1.10;;;;;;;;;;5038461;28;20047;-70
2022/02/14 13:36:52;;;;;;;3.67;1.00;;;;;;;;;;5031647;28;20044;-70
2022/02/14 13:39:33;;;;;;;2.30;1.07;;;;;;;;;;5021437;28;20042;-70
2022/02/14 13:41:59;;;;;;;2.60;1.33;;;;;;;;;;5040659;28;20512;-70
2022/02/14 13:44:27;;;;;;;3.33;1.20;;;;;;;;;;5036035;28;20029;-70
2022/02/14 13:46:52;;;;;;;2.00;1.00;;;;;;;;;;5039192;28;20112;-70
2022/02/14 13:49:30;;;;;;;2.37;1.00;;;;;;;;;;5040513;28;20615;-70
2022/02/14 13:51:56;;;;;;;3.20;1.30;;;;;;;;;;5039585;28;20020;-70
2022/02/14 13:54:21;;;;;;;2.67;1.30;;;;;;;;;;5038631;28;20656;-71
2022/02/14 13:56:46;;;;;;;2.33;1.20;;;;;;;;;;5040732;28;20591;-70
2022/02/14 13:59:16;;;;;;;3.60;1.10;;;;;;;;;;5034294;28;20769;-70
2022/02/14 14:01:42;;;;;;;3.03;1.17;;;;;;;;;;5037558;28;20017;-70
2022/02/14 14:04:20;;;;;;;2.67;1.10;;;;;;;;;;5041178;28;20039;-70
2022/02/14 14:06:45;;;;;;;2.63;1.30;;;;;;;;;;5040742;28;20053;-70
2022/02/14 14:09:15;;;;;;;3.10;1.30;;;;;;;;;;5041697;28;20655;-70
2022/02/14 14:11:40;;;;;;;2.27;1.30;;;;;;;;;;5040352;28;20017;-70
2022/02/14 14:14:05;;;;;;;2.30;1.00;;;;;;;;;;5031884;28;20355;-70
2022/02/14 14:16:32;;;;;;;1.63;1.00;;;;;;;;;;5035705;28;20083;-70
2022/02/14 14:18:57;;;;;;;6.80;1.43;;;;;;;;;;5035322;28;20037;-70
2022/02/14 14:21:22;;;;;;;3.10;1.10;;;;;;;;;;5033866;28;20422;-70
2022/02/14 14:23:48;;;;;;;3.40;1.10;;;;;;;;;;5038323;28;20412;-70
2022/02/14 14:26:16;;;;;;;2.60;1.10;;;;;;;;;;5037988;28;20060;-70
2022/02/14 14:28:42;;;;;;;2.20;1.03;;;;;;;;;;5034302;28;20100;-70
2022/02/14 14:31:07;;;;;;;2.80;1.23;;;;;;;;;;5040011;28;20028;-70
2022/02/14 14:33:32;;;;;;;2.60;1.07;;;;;;;;;;5031770;28;20029;-70
2022/02/14 14:36:01;;;;;;;1.53;0.83;;;;;;;;;;5031188;28;20107;-70
2022/02/14 14:38:26;;;;;;;6.10;1.30;;;;;;;;;;5040641;28;20037;-70
2022/02/14 14:40:52;;;;;;;2.73;0.87;;;;;;;;;;5040089;28;20039;-70
2022/02/14 14:43:17;;;;;;;3.43;1.20;;;;;;;;;;5040570;28;20028;-70
2022/02/14 14:45:43;;;;;;;2.23;0.90;;;;;;;;;;5035156;28;20043;-70